sensor_id;sensor_type;location;lat;lon;timestamp;temperature;humidity
80824;SHT35;70538;59.122;37.876;2023-12-04T00:00:03;-5.60;74.79
80824;SHT35;70538;59.122;37.876;2023-12-04T00:02:31;-5.64;74.73
80824;SHT35;70538;59.122;37.876;2023-12-04T00:04:59;-5.64;74.76
80824;SHT35;70538;59.122;37.876;2023-12-04T00:07:27;-5.66;74.76
80824;SHT35;70538;59.122;37.876;2023-12-04T00:09:54;-5.66;74.78
80824;SHT35;70538;59.122;37.876;2023-12-04T00:12:21;-5.70;74.67
80824;SHT35;70538;59.122;37.876;2023-12-04T00:14:49;-5.73;74.65
80824;SHT35;70538;59.122;37.876;2023-12-04T00:17:16;-5.73;74.86
80824;SHT35;70538;59.122;37.876;2023-12-04T00:19:44;-5.73;74.81
80824;SHT35;70538;59.122;37.876;2023-12-04T00:22:11;-5.73;74.71
80824;SHT35;70538;59.122;37.876;2023-12-04T00:24:38;-5.71;74.66
80824;SHT35;70538;59.122;37.876;2023-12-04T00:27:06;-5.75;74.63
80824;SHT35;70538;59.122;37.876;2023-12-04T00:29:33;-5.74;74.69
80824;SHT35;70538;59.122;37.876;2023-12-04T00:32:00;-5.71;74.64
80824;SHT35;70538;59.122;37.876;2023-12-04T00:34:27;-5.73;74.60
80824;SHT35;70538;59.122;37.876;2023-12-04T00:36:56;-5.75;74.63
80824;SHT35;70538;59.122;37.876;2023-12-04T00:39:23;-5.80;74.55
80824;SHT35;70538;59.122;37.876;2023-12-04T00:41:50;-5.80;74.64
80824;SHT35;70538;59.122;37.876;2023-12-04T00:44:18;-5.80;74.69
80824;SHT35;70538;59.122;37.876;2023-12-04T00:46:45;-5.77;74.72
80824;SHT35;70538;59.122;37.876;2023-12-04T00:49:13;-5.75;74.63
80824;SHT35;70538;59.122;37.876;2023-12-04T00:51:40;-5.80;74.58
80824;SHT35;70538;59.122;37.876;2023-12-04T00:54:07;-5.77;74.67
80824;SHT35;70538;59.122;37.876;2023-12-04T00:56:37;-5.77;74.60
80824;SHT35;70538;59.122;37.876;2023-12-04T00:59:05;-5.74;74.47
80824;SHT35;70538;59.122;37.876;2023-12-04T01:01:34;-5.77;74.47
80824;SHT35;70538;59.122;37.876;2023-12-04T01:04:02;-5.81;74.52
80824;SHT35;70538;59.122;37.876;2023-12-04T01:06:29;-5.78;74.56
80824;SHT35;70538;59.122;37.876;2023-12-04T01:08:57;-5.78;74.43
80824;SHT35;70538;59.122;37.876;2023-12-04T01:11:24;-5.82;74.44
80824;SHT35;70538;59.122;37.876;2023-12-04T01:13:52;-5.82;74.46
80824;SHT35;70538;59.122;37.876;2023-12-04T01:16:19;-5.81;74.41
80824;SHT35;70538;59.122;37.876;2023-12-04T01:18:47;-5.82;74.32
80824;SHT35;70538;59.122;37.876;2023-12-04T01:21:14;-5.85;74.38
80824;SHT35;70538;59.122;37.876;2023-12-04T01:23:41;-5.88;74.44
80824;SHT35;70538;59.122;37.876;2023-12-04T01:26:09;-5.92;74.61
80824;SHT35;70538;59.122;37.876;2023-12-04T01:28:37;-5.87;74.54
80824;SHT35;70538;59.122;37.876;2023-12-04T01:31:04;-5.89;74.55
80824;SHT35;70538;59.122;37.876;2023-12-04T01:33:32;-5.89;74.58
80824;SHT35;70538;59.122;37.876;2023-12-04T01:35:59;-5.92;74.56
80824;SHT35;70538;59.122;37.876;2023-12-04T01:38:27;-5.92;74.41
80824;SHT35;70538;59.122;37.876;2023-12-04T01:40:54;-5.95;74.49
80824;SHT35;70538;59.122;37.876;2023-12-04T01:43:22;-5.99;74.52
80824;SHT35;70538;59.122;37.876;2023-12-04T01:45:49;-6.01;74.59
80824;SHT35;70538;59.122;37.876;2023-12-04T01:48:17;-5.99;74.69
80824;SHT35;70538;59.122;37.876;2023-12-04T01:50:44;-6.01;74.69
80824;SHT35;70538;59.122;37.876;2023-12-04T01:53:12;-6.01;74.63
80824;SHT35;70538;59.122;37.876;2023-12-04T01:55:39;-5.99;74.69
80824;SHT35;70538;59.122;37.876;2023-12-04T01:58:08;-6.01;74.62
80824;SHT35;70538;59.122;37.876;2023-12-04T02:00:36;-6.01;74.72
80824;SHT35;70538;59.122;37.876;2023-12-04T02:03:04;-6.01;74.74
80824;SHT35;70538;59.122;37.876;2023-12-04T02:05:31;-6.01;74.55
80824;SHT35;70538;59.122;37.876;2023-12-04T02:07:59;-6.02;74.65
80824;SHT35;70538;59.122;37.876;2023-12-04T02:10:27;-5.99;74.72
80824;SHT35;70538;59.122;37.876;2023-12-04T02:12:55;-5.98;74.61
80824;SHT35;70538;59.122;37.876;2023-12-04T02:15:22;-5.98;74.63
80824;SHT35;70538;59.122;37.876;2023-12-04T02:17:50;-5.95;74.63
80824;SHT35;70538;59.122;37.876;2023-12-04T02:20:17;-5.92;74.56
80824;SHT35;70538;59.122;37.876;2023-12-04T02:22:46;-5.97;74.34
80824;SHT35;70538;59.122;37.876;2023-12-04T02:25:13;-5.99;74.45
80824;SHT35;70538;59.122;37.876;2023-12-04T02:28:01;-6.02;74.49
80824;SHT35;70538;59.122;37.876;2023-12-04T02:30:29;-6.02;74.44
80824;SHT35;70538;59.122;37.876;2023-12-04T02:32:59;-6.02;74.52
80824;SHT35;70538;59.122;37.876;2023-12-04T02:35:29;-5.99;74.44
80824;SHT35;70538;59.122;37.876;2023-12-04T02:38:02;-6.01;74.40
80824;SHT35;70538;59.122;37.876;2023-12-04T02:40:29;-6.02;74.36
80824;SHT35;70538;59.122;37.876;2023-12-04T02:42:57;-6.03;74.39
80824;SHT35;70538;59.122;37.876;2023-12-04T02:45:24;-6.01;74.40
80824;SHT35;70538;59.122;37.876;2023-12-04T02:47:52;-5.99;74.36
80824;SHT35;70538;59.122;37.876;2023-12-04T02:50:19;-5.98;74.26
80824;SHT35;70538;59.122;37.876;2023-12-04T02:52:47;-6.01;74.19
80824;SHT35;70538;59.122;37.876;2023-12-04T02:55:14;-6.01;74.15
80824;SHT35;70538;59.122;37.876;2023-12-04T02:57:42;-6.02;74.16
80824;SHT35;70538;59.122;37.876;2023-12-04T03:00:09;-6.02;74.14
80824;SHT35;70538;59.122;37.876;2023-12-04T03:02:36;-6.02;74.21
80824;SHT35;70538;59.122;37.876;2023-12-04T03:05:04;-6.01;74.19
80824;SHT35;70538;59.122;37.876;2023-12-04T03:07:31;-6.01;74.16
80824;SHT35;70538;59.122;37.876;2023-12-04T03:09:59;-6.02;74.06
80824;SHT35;70538;59.122;37.876;2023-12-04T03:12:27;-6.03;74.10
80824;SHT35;70538;59.122;37.876;2023-12-04T03:14:54;-6.02;74.18
80824;SHT35;70538;59.122;37.876;2023-12-04T03:17:22;-6.03;74.07
80824;SHT35;70538;59.122;37.876;2023-12-04T03:19:49;-6.03;74.06
80824;SHT35;70538;59.122;37.876;2023-12-04T03:22:17;-6.02;74.08
80824;SHT35;70538;59.122;37.876;2023-12-04T03:24:44;-6.02;74.04
80824;SHT35;70538;59.122;37.876;2023-12-04T03:27:12;-6.05;74.09
80824;SHT35;70538;59.122;37.876;2023-12-04T03:29:40;-6.03;74.02
80824;SHT35;70538;59.122;37.876;2023-12-04T03:32:07;-6.06;73.91
80824;SHT35;70538;59.122;37.876;2023-12-04T03:34:34;-6.06;73.92
80824;SHT35;70538;59.122;37.876;2023-12-04T03:37:02;-6.05;73.94
80824;SHT35;70538;59.122;37.876;2023-12-04T03:39:29;-6.08;73.71
80824;SHT35;70538;59.122;37.876;2023-12-04T03:41:57;-6.08;73.91
80824;SHT35;70538;59.122;37.876;2023-12-04T03:44:24;-6.09;73.83
80824;SHT35;70538;59.122;37.876;2023-12-04T03:46:52;-6.10;73.85
80824;SHT35;70538;59.122;37.876;2023-12-04T03:49:19;-6.10;73.85
80824;SHT35;70538;59.122;37.876;2023-12-04T03:51:47;-6.06;73.71
80824;SHT35;70538;59.122;37.876;2023-12-04T03:54:14;-6.08;73.70
80824;SHT35;70538;59.122;37.876;2023-12-04T03:56:42;-6.12;73.65
80824;SHT35;70538;59.122;37.876;2023-12-04T03:59:09;-6.10;73.77
80824;SHT35;70538;59.122;37.876;2023-12-04T04:01:37;-6.12;73.78
80824;SHT35;70538;59.122;37.876;2023-12-04T04:04:05;-6.08;73.85
80824;SHT35;70538;59.122;37.876;2023-12-04T04:06:32;-6.08;73.60
80824;SHT35;70538;59.122;37.876;2023-12-04T04:09:00;-6.10;73.69
80824;SHT35;70538;59.122;37.876;2023-12-04T04:11:27;-6.12;73.64
80824;SHT35;70538;59.122;37.876;2023-12-04T04:13:55;-6.12;73.77
80824;SHT35;70538;59.122;37.876;2023-12-04T04:16:22;-6.10;73.61
80824;SHT35;70538;59.122;37.876;2023-12-04T04:18:49;-6.13;73.64
80824;SHT35;70538;59.122;37.876;2023-12-04T04:21:17;-6.16;73.66
80824;SHT35;70538;59.122;37.876;2023-12-04T04:23:44;-6.19;73.65
80824;SHT35;70538;59.122;37.876;2023-12-04T04:26:11;-6.19;73.69
80824;SHT35;70538;59.122;37.876;2023-12-04T04:28:39;-6.23;73.72
80824;SHT35;70538;59.122;37.876;2023-12-04T04:31:06;-6.26;73.72
80824;SHT35;70538;59.122;37.876;2023-12-04T04:33:34;-6.27;73.76
80824;SHT35;70538;59.122;37.876;2023-12-04T04:36:01;-6.29;73.79
80824;SHT35;70538;59.122;37.876;2023-12-04T04:38:28;-6.27;73.68
80824;SHT35;70538;59.122;37.876;2023-12-04T04:40:56;-6.26;73.71
80824;SHT35;70538;59.122;37.876;2023-12-04T04:43:23;-6.30;73.62
80824;SHT35;70538;59.122;37.876;2023-12-04T04:45:51;-6.30;73.77
80824;SHT35;70538;59.122;37.876;2023-12-04T04:48:18;-6.34;73.59
80824;SHT35;70538;59.122;37.876;2023-12-04T04:50:46;-6.34;73.67
80824;SHT35;70538;59.122;37.876;2023-12-04T04:53:14;-6.33;73.66
80824;SHT35;70538;59.122;37.876;2023-12-04T04:55:41;-6.37;73.70
80824;SHT35;70538;59.122;37.876;2023-12-04T04:58:15;-6.36;73.74
80824;SHT35;70538;59.122;37.876;2023-12-04T05:00:43;-6.34;73.81
80824;SHT35;70538;59.122;37.876;2023-12-04T05:03:10;-6.36;73.83
80824;SHT35;70538;59.122;37.876;2023-12-04T05:05:38;-6.32;73.78
80824;SHT35;70538;59.122;37.876;2023-12-04T05:08:05;-6.29;73.73
80824;SHT35;70538;59.122;37.876;2023-12-04T05:10:33;-6.26;73.57
80824;SHT35;70538;59.122;37.876;2023-12-04T05:13:00;-6.29;73.54
80824;SHT35;70538;59.122;37.876;2023-12-04T05:15:27;-6.32;73.52
80824;SHT35;70538;59.122;37.876;2023-12-04T05:17:55;-6.36;73.63
80824;SHT35;70538;59.122;37.876;2023-12-04T05:20:25;-6.34;73.63
80824;SHT35;70538;59.122;37.876;2023-12-04T05:22:55;-6.37;73.57
80824;SHT35;70538;59.122;37.876;2023-12-04T05:25:23;-6.38;73.63
80824;SHT35;70538;59.122;37.876;2023-12-04T05:27:57;-6.38;73.53
80824;SHT35;70538;59.122;37.876;2023-12-04T05:30:24;-6.40;73.64
80824;SHT35;70538;59.122;37.876;2023-12-04T05:32:52;-6.40;73.68
80824;SHT35;70538;59.122;37.876;2023-12-04T05:35:20;-6.38;73.54
80824;SHT35;70538;59.122;37.876;2023-12-04T05:37:47;-6.41;73.46
80824;SHT35;70538;59.122;37.876;2023-12-04T05:40:15;-6.43;73.56
80824;SHT35;70538;59.122;37.876;2023-12-04T05:42:42;-6.43;73.56
80824;SHT35;70538;59.122;37.876;2023-12-04T05:45:10;-6.47;73.59
80824;SHT35;70538;59.122;37.876;2023-12-04T05:47:37;-6.46;73.59
80824;SHT35;70538;59.122;37.876;2023-12-04T05:50:05;-6.44;73.60
80824;SHT35;70538;59.122;37.876;2023-12-04T05:52:32;-6.44;73.52
80824;SHT35;70538;59.122;37.876;2023-12-04T05:55:00;-6.47;73.51
80824;SHT35;70538;59.122;37.876;2023-12-04T05:57:27;-6.46;73.58
80824;SHT35;70538;59.122;37.876;2023-12-04T05:59:55;-6.46;73.50
80824;SHT35;70538;59.122;37.876;2023-12-04T06:02:22;-6.51;73.34
80824;SHT35;70538;59.122;37.876;2023-12-04T06:04:50;-6.53;73.44
80824;SHT35;70538;59.122;37.876;2023-12-04T06:07:17;-6.55;73.63
80824;SHT35;70538;59.122;37.876;2023-12-04T06:09:44;-6.57;73.71
80824;SHT35;70538;59.122;37.876;2023-12-04T06:12:12;-6.53;73.60
80824;SHT35;70538;59.122;37.876;2023-12-04T06:14:39;-6.57;73.51
80824;SHT35;70538;59.122;37.876;2023-12-04T06:17:07;-6.55;73.51
80824;SHT35;70538;59.122;37.876;2023-12-04T06:19:34;-6.60;73.53
80824;SHT35;70538;59.122;37.876;2023-12-04T06:22:02;-6.60;73.55
80824;SHT35;70538;59.122;37.876;2023-12-04T06:24:29;-6.61;73.57
80824;SHT35;70538;59.122;37.876;2023-12-04T06:26:57;-6.60;73.58
80824;SHT35;70538;59.122;37.876;2023-12-04T06:29:25;-6.61;73.61
80824;SHT35;70538;59.122;37.876;2023-12-04T06:31:52;-6.55;73.59
80824;SHT35;70538;59.122;37.876;2023-12-04T06:34:20;-6.54;73.54
80824;SHT35;70538;59.122;37.876;2023-12-04T06:36:48;-6.53;73.47
80824;SHT35;70538;59.122;37.876;2023-12-04T06:39:15;-6.53;73.41
80824;SHT35;70538;59.122;37.876;2023-12-04T06:41:43;-6.57;73.35
80824;SHT35;70538;59.122;37.876;2023-12-04T06:44:11;-6.54;73.36
80824;SHT35;70538;59.122;37.876;2023-12-04T06:46:38;-6.57;73.32
80824;SHT35;70538;59.122;37.876;2023-12-04T06:49:06;-6.58;73.34
80824;SHT35;70538;59.122;37.876;2023-12-04T06:51:33;-6.63;73.29
80824;SHT35;70538;59.122;37.876;2023-12-04T06:54:01;-6.61;73.36
80824;SHT35;70538;59.122;37.876;2023-12-04T06:56:29;-6.63;73.45
80824;SHT35;70538;59.122;37.876;2023-12-04T06:58:57;-6.63;73.48
80824;SHT35;70538;59.122;37.876;2023-12-04T07:01:24;-6.61;73.57
80824;SHT35;70538;59.122;37.876;2023-12-04T07:03:52;-6.57;73.52
80824;SHT35;70538;59.122;37.876;2023-12-04T07:06:19;-6.51;73.40
80824;SHT35;70538;59.122;37.876;2023-12-04T07:08:46;-6.53;73.36
80824;SHT35;70538;59.122;37.876;2023-12-04T07:11:14;-6.53;73.41
80824;SHT35;70538;59.122;37.876;2023-12-04T07:13:42;-6.48;73.40
80824;SHT35;70538;59.122;37.876;2023-12-04T07:16:09;-6.46;73.32
80824;SHT35;70538;59.122;37.876;2023-12-04T07:18:37;-6.43;73.38
80824;SHT35;70538;59.122;37.876;2023-12-04T07:21:04;-6.43;73.30
80824;SHT35;70538;59.122;37.876;2023-12-04T07:23:32;-6.36;73.33
80824;SHT35;70538;59.122;37.876;2023-12-04T07:25:59;-6.33;73.26
80824;SHT35;70538;59.122;37.876;2023-12-04T07:28:26;-6.26;73.34
80824;SHT35;70538;59.122;37.876;2023-12-04T07:30:54;-6.22;73.14
80824;SHT35;70538;59.122;37.876;2023-12-04T07:33:21;-6.16;73.00
80824;SHT35;70538;59.122;37.876;2023-12-04T07:35:49;-6.12;72.97
80824;SHT35;70538;59.122;37.876;2023-12-04T07:38:16;-6.05;73.08
80824;SHT35;70538;59.122;37.876;2023-12-04T07:40:44;-5.98;73.00
80824;SHT35;70538;59.122;37.876;2023-12-04T07:43:12;-5.89;72.82
80824;SHT35;70538;59.122;37.876;2023-12-04T07:45:41;-5.80;72.90
80824;SHT35;70538;59.122;37.876;2023-12-04T07:48:09;-5.67;72.98
80824;SHT35;70538;59.122;37.876;2023-12-04T07:50:36;-5.46;72.93
80824;SHT35;70538;59.122;37.876;2023-12-04T07:53:05;-5.25;72.77
80824;SHT35;70538;59.122;37.876;2023-12-04T07:55:32;-5.01;72.36
80824;SHT35;70538;59.122;37.876;2023-12-04T07:58:00;-4.73;72.15
80824;SHT35;70538;59.122;37.876;2023-12-04T08:00:27;-4.37;71.66
80824;SHT35;70538;59.122;37.876;2023-12-04T08:02:55;-3.97;70.91
80824;SHT35;70538;59.122;37.876;2023-12-04T08:05:23;-3.47;70.48
80824;SHT35;70538;59.122;37.876;2023-12-04T08:07:50;-3.00;69.30
80824;SHT35;70538;59.122;37.876;2023-12-04T08:10:17;-2.50;67.99
80824;SHT35;70538;59.122;37.876;2023-12-04T08:12:45;-2.12;66.94
80824;SHT35;70538;59.122;37.876;2023-12-04T08:15:13;-1.79;65.54
80824;SHT35;70538;59.122;37.876;2023-12-04T08:17:41;-1.49;64.87
80824;SHT35;70538;59.122;37.876;2023-12-04T08:20:08;-1.35;64.01
80824;SHT35;70538;59.122;37.876;2023-12-04T08:22:50;-1.25;63.78
80824;SHT35;70538;59.122;37.876;2023-12-04T08:25:17;-1.24;63.53
80824;SHT35;70538;59.122;37.876;2023-12-04T08:27:45;-1.31;63.30
80824;SHT35;70538;59.122;37.876;2023-12-04T08:30:12;-1.35;63.50
80824;SHT35;70538;59.122;37.876;2023-12-04T08:32:40;-1.38;63.74
80824;SHT35;70538;59.122;37.876;2023-12-04T08:35:07;-1.41;63.94
80824;SHT35;70538;59.122;37.876;2023-12-04T08:37:35;-1.45;63.40
80824;SHT35;70538;59.122;37.876;2023-12-04T08:40:03;-1.53;63.52
80824;SHT35;70538;59.122;37.876;2023-12-04T08:42:31;-1.63;64.01
80824;SHT35;70538;59.122;37.876;2023-12-04T08:45:04;-1.71;63.95
80824;SHT35;70538;59.122;37.876;2023-12-04T08:47:36;-1.80;63.94
80824;SHT35;70538;59.122;37.876;2023-12-04T08:50:04;-1.88;63.71
80824;SHT35;70538;59.122;37.876;2023-12-04T08:52:32;-2.01;63.91
80824;SHT35;70538;59.122;37.876;2023-12-04T08:55:00;-2.07;64.23
80824;SHT35;70538;59.122;37.876;2023-12-04T08:57:29;-2.15;64.13
80824;SHT35;70538;59.122;37.876;2023-12-04T08:59:57;-2.24;64.24
80824;SHT35;70538;59.122;37.876;2023-12-04T09:02:25;-2.32;64.15
80824;SHT35;70538;59.122;37.876;2023-12-04T09:04:53;-2.43;64.44
80824;SHT35;70538;59.122;37.876;2023-12-04T09:07:21;-2.48;64.73
80824;SHT35;70538;59.122;37.876;2023-12-04T09:10:10;-2.46;64.94
80824;SHT35;70538;59.122;37.876;2023-12-04T09:12:51;-2.42;64.90
80824;SHT35;70538;59.122;37.876;2023-12-04T09:15:19;-2.32;64.85
80824;SHT35;70538;59.122;37.876;2023-12-04T09:17:46;-2.26;64.87
80824;SHT35;70538;59.122;37.876;2023-12-04T09:20:14;-2.24;64.67
80824;SHT35;70538;59.122;37.876;2023-12-04T09:22:41;-2.18;64.63
80824;SHT35;70538;59.122;37.876;2023-12-04T09:25:11;-2.12;64.77
80824;SHT35;70538;59.122;37.876;2023-12-04T09:27:39;-2.01;64.65
80824;SHT35;70538;59.122;37.876;2023-12-04T09:30:06;-1.93;64.63
80824;SHT35;70538;59.122;37.876;2023-12-04T09:32:35;-1.77;64.51
80824;SHT35;70538;59.122;37.876;2023-12-04T09:35:02;-1.56;64.22
80824;SHT35;70538;59.122;37.876;2023-12-04T09:37:35;-1.30;63.87
80824;SHT35;70538;59.122;37.876;2023-12-04T09:40:02;-1.07;63.49
80824;SHT35;70538;59.122;37.876;2023-12-04T09:42:30;-0.88;63.11
80824;SHT35;70538;59.122;37.876;2023-12-04T09:44:59;-0.77;62.56
80824;SHT35;70538;59.122;37.876;2023-12-04T09:47:29;-0.74;62.04
80824;SHT35;70538;59.122;37.876;2023-12-04T09:49:57;-0.80;62.03
80824;SHT35;70538;59.122;37.876;2023-12-04T09:52:27;-0.91;62.06
80824;SHT35;70538;59.122;37.876;2023-12-04T09:54:55;-0.98;62.34
80824;SHT35;70538;59.122;37.876;2023-12-04T09:57:23;-1.05;62.60
80824;SHT35;70538;59.122;37.876;2023-12-04T09:59:51;-0.98;62.87
80824;SHT35;70538;59.122;37.876;2023-12-04T10:02:19;-0.87;62.72
80824;SHT35;70538;59.122;37.876;2023-12-04T10:07:36;-0.69;62.17
80824;SHT35;70538;59.122;37.876;2023-12-04T10:10:03;-0.53;62.26
80824;SHT35;70538;59.122;37.876;2023-12-04T10:12:32;-0.31;61.99
80824;SHT35;70538;59.122;37.876;2023-12-04T10:15:03;-0.04;61.66
80824;SHT35;70538;59.122;37.876;2023-12-04T10:17:35;0.23;61.14
80824;SHT35;70538;59.122;37.876;2023-12-04T10:20:05;0.50;60.73
80824;SHT35;70538;59.122;37.876;2023-12-04T10:22:57;0.88;60.21
80824;SHT35;70538;59.122;37.876;2023-12-04T10:25:26;1.43;59.71
80824;SHT35;70538;59.122;37.876;2023-12-04T10:28:06;1.99;58.43
80824;SHT35;70538;59.122;37.876;2023-12-04T10:30:34;2.42;57.51
80824;SHT35;70538;59.122;37.876;2023-12-04T10:33:02;2.82;56.68
80824;SHT35;70538;59.122;37.876;2023-12-04T10:35:34;3.19;55.52
80824;SHT35;70538;59.122;37.876;2023-12-04T10:38:06;3.45;54.27
80824;SHT35;70538;59.122;37.876;2023-12-04T10:40:34;3.57;54.07
80824;SHT35;70538;59.122;37.876;2023-12-04T10:45:39;3.58;53.31
80824;SHT35;70538;59.122;37.876;2023-12-04T10:48:07;3.57;52.62
80824;SHT35;70538;59.122;37.876;2023-12-04T10:50:38;3.58;52.42
80824;SHT35;70538;59.122;37.876;2023-12-04T10:53:06;3.64;52.70
80824;SHT35;70538;59.122;37.876;2023-12-04T10:55:36;3.64;52.60
80824;SHT35;70538;59.122;37.876;2023-12-04T10:58:08;3.58;52.70
80824;SHT35;70538;59.122;37.876;2023-12-04T11:00:38;3.57;53.03
80824;SHT35;70538;59.122;37.876;2023-12-04T11:03:10;3.58;53.06
80824;SHT35;70538;59.122;37.876;2023-12-04T11:05:41;3.50;53.06
80824;SHT35;70538;59.122;37.876;2023-12-04T11:08:09;3.38;53.06
80824;SHT35;70538;59.122;37.876;2023-12-04T11:10:45;3.27;53.04
80824;SHT35;70538;59.122;37.876;2023-12-04T11:13:29;3.06;52.99
80824;SHT35;70538;59.122;37.876;2023-12-04T11:16:01;2.72;53.27
80824;SHT35;70538;59.122;37.876;2023-12-04T11:18:31;2.30;53.45
80824;SHT35;70538;59.122;37.876;2023-12-04T11:20:59;1.72;53.93
80824;SHT35;70538;59.122;37.876;2023-12-04T11:23:28;1.15;54.92
80824;SHT35;70538;59.122;37.876;2023-12-04T11:26:15;0.60;55.55
80824;SHT35;70538;59.122;37.876;2023-12-04T11:28:43;0.16;56.02
80824;SHT35;70538;59.122;37.876;2023-12-04T11:31:11;-0.08;56.77
80824;SHT35;70538;59.122;37.876;2023-12-04T11:33:39;-0.15;56.71
80824;SHT35;70538;59.122;37.876;2023-12-04T11:36:10;-0.17;56.39
80824;SHT35;70538;59.122;37.876;2023-12-04T11:38:43;-0.26;56.08
80824;SHT35;70538;59.122;37.876;2023-12-04T11:41:29;-0.46;55.86
80824;SHT35;70538;59.122;37.876;2023-12-04T11:43:57;-0.80;55.98
80824;SHT35;70538;59.122;37.876;2023-12-04T11:46:25;-1.08;56.37
80824;SHT35;70538;59.122;37.876;2023-12-04T11:48:57;-1.50;56.31
80824;SHT35;70538;59.122;37.876;2023-12-04T11:54:15;-2.52;57.41
80824;SHT35;70538;59.122;37.876;2023-12-04T11:59:39;-3.23;58.60
80824;SHT35;70538;59.122;37.876;2023-12-04T12:02:07;-3.46;58.99
80824;SHT35;70538;59.122;37.876;2023-12-04T12:04:37;-3.55;59.43
80824;SHT35;70538;59.122;37.876;2023-12-04T12:07:05;-3.55;59.45
80824;SHT35;70538;59.122;37.876;2023-12-04T12:09:33;-3.47;59.30
80824;SHT35;70538;59.122;37.876;2023-12-04T12:12:03;-3.42;59.09
80824;SHT35;70538;59.122;37.876;2023-12-04T12:14:31;-3.38;58.91
80824;SHT35;70538;59.122;37.876;2023-12-04T12:16:59;-3.39;58.73
80824;SHT35;70538;59.122;37.876;2023-12-04T12:19:27;-3.39;58.42
80824;SHT35;70538;59.122;37.876;2023-12-04T12:21:55;-3.62;58.55
80824;SHT35;70538;59.122;37.876;2023-12-04T12:24:23;-3.67;58.78
80824;SHT35;70538;59.122;37.876;2023-12-04T12:26:50;-3.71;58.78
80824;SHT35;70538;59.122;37.876;2023-12-04T12:29:18;-3.84;58.58
80824;SHT35;70538;59.122;37.876;2023-12-04T12:31:45;-4.05;58.67
80824;SHT35;70538;59.122;37.876;2023-12-04T12:34:14;-4.19;59.19
80824;SHT35;70538;59.122;37.876;2023-12-04T12:36:42;-4.26;59.37
80824;SHT35;70538;59.122;37.876;2023-12-04T12:39:09;-4.28;59.45
80824;SHT35;70538;59.122;37.876;2023-12-04T12:41:37;-4.39;59.40
80824;SHT35;70538;59.122;37.876;2023-12-04T12:44:05;-4.52;59.39
80824;SHT35;70538;59.122;37.876;2023-12-04T12:46:33;-4.63;59.59
80824;SHT35;70538;59.122;37.876;2023-12-04T12:49:00;-4.77;59.87
80824;SHT35;70538;59.122;37.876;2023-12-04T12:51:28;-4.85;60.14
80824;SHT35;70538;59.122;37.876;2023-12-04T12:53:56;-4.85;60.22
80824;SHT35;70538;59.122;37.876;2023-12-04T12:56:25;-4.89;60.32
80824;SHT35;70538;59.122;37.876;2023-12-04T12:58:52;-4.94;60.54
80824;SHT35;70538;59.122;37.876;2023-12-04T13:01:22;-4.92;60.51
80824;SHT35;70538;59.122;37.876;2023-12-04T13:03:50;-5.02;60.58
80824;SHT35;70538;59.122;37.876;2023-12-04T13:06:17;-5.12;60.87
80824;SHT35;70538;59.122;37.876;2023-12-04T13:08:45;-5.16;61.08
80824;SHT35;70538;59.122;37.876;2023-12-04T13:11:12;-5.22;61.40
80824;SHT35;70538;59.122;37.876;2023-12-04T13:13:40;-5.19;61.45
80824;SHT35;70538;59.122;37.876;2023-12-04T13:16:10;-5.19;61.42
80824;SHT35;70538;59.122;37.876;2023-12-04T13:18:37;-5.15;61.43
80824;SHT35;70538;59.122;37.876;2023-12-04T13:21:06;-5.16;61.35
80824;SHT35;70538;59.122;37.876;2023-12-04T13:23:37;-5.22;61.57
80824;SHT35;70538;59.122;37.876;2023-12-04T13:26:05;-5.30;61.72
80824;SHT35;70538;59.122;37.876;2023-12-04T13:28:32;-5.43;62.06
80824;SHT35;70538;59.122;37.876;2023-12-04T13:31:09;-5.50;62.33
80824;SHT35;70538;59.122;37.876;2023-12-04T13:33:37;-5.57;62.62
80824;SHT35;70538;59.122;37.876;2023-12-04T13:36:05;-5.56;62.86
80824;SHT35;70538;59.122;37.876;2023-12-04T13:38:32;-5.60;62.89
80824;SHT35;70538;59.122;37.876;2023-12-04T13:41:04;-5.61;63.08
80824;SHT35;70538;59.122;37.876;2023-12-04T13:43:57;-5.59;63.05
80824;SHT35;70538;59.122;37.876;2023-12-04T13:46:26;-5.59;63.12
80824;SHT35;70538;59.122;37.876;2023-12-04T13:48:54;-5.53;63.04
80824;SHT35;70538;59.122;37.876;2023-12-04T13:51:22;-5.49;62.97
80824;SHT35;70538;59.122;37.876;2023-12-04T13:53:49;-5.47;63.16
80824;SHT35;70538;59.122;37.876;2023-12-04T13:56:25;-5.42;63.04
80824;SHT35;70538;59.122;37.876;2023-12-04T13:58:56;-5.36;62.95
80824;SHT35;70538;59.122;37.876;2023-12-04T14:01:24;-5.37;62.99
80824;SHT35;70538;59.122;37.876;2023-12-04T14:03:54;-5.37;63.10
80824;SHT35;70538;59.122;37.876;2023-12-04T14:06:28;-5.36;63.03
80824;SHT35;70538;59.122;37.876;2023-12-04T14:08:59;-5.39;63.19
80824;SHT35;70538;59.122;37.876;2023-12-04T14:11:26;-5.43;63.34
80824;SHT35;70538;59.122;37.876;2023-12-04T14:13:54;-5.34;63.45
80824;SHT35;70538;59.122;37.876;2023-12-04T14:16:22;-5.32;63.34
80824;SHT35;70538;59.122;37.876;2023-12-04T14:18:49;-5.29;63.22
80824;SHT35;70538;59.122;37.876;2023-12-04T14:21:17;-5.22;63.20
80824;SHT35;70538;59.122;37.876;2023-12-04T14:23:44;-5.20;63.09
80824;SHT35;70538;59.122;37.876;2023-12-04T14:26:12;-5.20;63.08
80824;SHT35;70538;59.122;37.876;2023-12-04T14:28:39;-5.25;63.02
80824;SHT35;70538;59.122;37.876;2023-12-04T14:31:09;-5.36;63.17
80824;SHT35;70538;59.122;37.876;2023-12-04T14:33:37;-5.46;63.40
80824;SHT35;70538;59.122;37.876;2023-12-04T14:36:09;-5.53;63.65
80824;SHT35;70538;59.122;37.876;2023-12-04T14:38:36;-5.51;63.81
80824;SHT35;70538;59.122;37.876;2023-12-04T14:41:05;-5.50;63.80
80824;SHT35;70538;59.122;37.876;2023-12-04T14:43:33;-5.54;63.78
80824;SHT35;70538;59.122;37.876;2023-12-04T14:46:01;-5.60;63.98
80824;SHT35;70538;59.122;37.876;2023-12-04T14:48:29;-5.63;63.86
80824;SHT35;70538;59.122;37.876;2023-12-04T14:50:57;-5.66;64.00
80824;SHT35;70538;59.122;37.876;2023-12-04T14:53:28;-5.68;64.21
80824;SHT35;70538;59.122;37.876;2023-12-04T14:55:57;-5.74;64.16
80824;SHT35;70538;59.122;37.876;2023-12-04T14:58:43;-5.80;64.36
80824;SHT35;70538;59.122;37.876;2023-12-04T15:01:12;-5.82;64.59
80824;SHT35;70538;59.122;37.876;2023-12-04T15:03:57;-5.81;64.54
80824;SHT35;70538;59.122;37.876;2023-12-04T15:06:43;-5.84;64.72
80824;SHT35;70538;59.122;37.876;2023-12-04T15:09:31;-5.80;64.85
80824;SHT35;70538;59.122;37.876;2023-12-04T15:12:20;-5.73;64.77
80824;SHT35;70538;59.122;37.876;2023-12-04T15:15:05;-5.61;64.66
80824;SHT35;70538;59.122;37.876;2023-12-04T15:17:33;-5.61;64.51
80824;SHT35;70538;59.122;37.876;2023-12-04T15:20:12;-5.56;64.57
80824;SHT35;70538;59.122;37.876;2023-12-04T15:22:58;-5.53;64.49
80824;SHT35;70538;59.122;37.876;2023-12-04T15:25:26;-5.56;64.28
80824;SHT35;70538;59.122;37.876;2023-12-04T15:27:54;-5.59;64.37
80824;SHT35;70538;59.122;37.876;2023-12-04T15:30:22;-5.64;64.52
80824;SHT35;70538;59.122;37.876;2023-12-04T15:32:49;-5.60;64.61
80824;SHT35;70538;59.122;37.876;2023-12-04T15:35:17;-5.59;64.50
80824;SHT35;70538;59.122;37.876;2023-12-04T15:37:45;-5.67;64.52